Time;durP1;ratioP1;P1;durP2;ratioP2;P2;SDS_P1;SDS_P2;PMS_P1;PMS_P2;Temp;Humidity;BMP_temperature;BMP_pressure;BME280_temperature;BME280_humidity;BME280_pressure;Samples;Min_cycle;Max_cycle;Signal;HPM_P1;HPM_P2
2021/05/30 00:00:38;;;;;;;2.65;1.00;;;;;;;17.78;63.67;100858.75;5156343;27;20049;-78
2021/05/30 00:03:42;;;;;;;2.50;0.90;;;;;;;17.76;64.30;100860.81;5156607;27;20058;-77
2021/05/30 00:07:07;;;;;;;2.00;0.90;;;;;;;17.78;64.87;100854.19;5070766;28;20385;-77
2021/05/30 00:10:12;;;;;;;2.35;1.17;;;;;;;17.64;66.01;100857.59;5071122;28;20047;-77
2021/05/30 00:13:18;;;;;;;3.92;1.40;;;;;;;17.42;66.97;100842.75;5071362;28;20372;-77
2021/05/30 00:16:22;;;;;;;2.70;1.45;;;;;;;17.26;67.96;100847.28;5071034;28;20051;-77
2021/05/30 00:19:27;;;;;;;2.30;1.33;;;;;;;17.21;68.96;100849.63;5071016;28;20052;-77
2021/05/30 00:22:32;;;;;;;2.47;1.38;;;;;;;17.24;68.74;100854.75;5071009;28;20047;-77
2021/05/30 00:25:36;;;;;;;3.67;1.40;;;;;;;17.17;69.39;100849.13;5070498;28;20060;-77
2021/05/30 00:28:41;;;;;;;4.10;1.50;;;;;;;17.18;69.58;100847.28;5070844;28;20052;-77
2021/05/30 00:31:45;;;;;;;3.03;1.40;;;;;;;17.15;69.59;100851.16;5070700;28;20047;-77
2021/05/30 00:34:50;;;;;;;5.22;1.83;;;;;;;17.15;69.65;100850.31;5070126;28;20075;-78
2021/05/30 00:37:54;;;;;;;1.90;1.23;;;;;;;17.15;69.55;100853.03;5070796;28;20391;-77
2021/05/30 00:40:59;;;;;;;2.72;1.45;;;;;;;17.18;69.84;100842.72;5070616;28;20052;-77
2021/05/30 00:44:19;;;;;;;2.67;1.48;;;;;;;17.17;69.46;100838.28;5070509;28;20059;-78
2021/05/30 00:47:24;;;;;;;3.58;1.63;;;;;;;17.18;68.36;100829.13;5070596;28;20083;-78
2021/05/30 00:50:29;;;;;;;2.17;1.02;;;;;;;17.23;68.56;100844.91;5070268;28;20043;-78
2021/05/30 00:53:34;;;;;;;3.15;1.30;;;;;;;17.29;68.30;100869.50;5069488;28;20067;-77
2021/05/30 00:56:40;;;;;;;2.63;1.73;;;;;;;17.24;69.67;100877.28;5070244;28;20408;-77
2021/05/30 00:59:44;;;;;;;2.67;1.73;;;;;;;16.87;71.06;100882.22;5069295;28;20044;-77
2021/05/30 01:02:49;;;;;;;3.70;2.42;;;;;;;16.74;72.05;100898.09;5070060;28;20052;-77
2021/05/30 01:05:54;;;;;;;2.97;2.13;;;;;;;16.56;73.32;100897.31;5069482;28;20059;-77
2021/05/30 01:09:06;;;;;;;5.70;2.25;;;;;;;16.43;73.74;100892.28;5070185;28;20055;-76
2021/05/30 01:12:10;;;;;;;5.55;2.60;;;;;;;16.40;74.53;100898.00;5069837;28;20051;-76
2021/05/30 01:15:16;;;;;;;3.58;2.70;;;;;;;16.32;74.96;100897.13;5069858;28;20063;-77
2021/05/30 01:18:23;;;;;;;6.78;2.78;;;;;;;16.37;75.15;100898.31;5057065;28;20116;-77
2021/05/30 01:21:28;;;;;;;6.20;3.17;;;;;;;16.39;75.31;100900.91;5056516;28;20120;-77
2021/05/30 01:24:32;;;;;;;6.75;3.35;;;;;;;16.42;75.27;100897.88;5055933;28;20056;-77
2021/05/30 01:27:36;;;;;;;6.45;3.30;;;;;;;16.42;75.50;100895.16;5056418;28;20483;-77
2021/05/30 01:30:42;;;;;;;4.70;3.45;;;;;;;16.49;75.75;100902.47;5056693;28;20048;-77
2021/05/30 01:33:46;;;;;;;5.38;3.20;;;;;;;16.54;76.04;100905.59;5055481;28;20051;-76
2021/05/30 01:36:51;;;;;;;4.57;3.85;;;;;;;16.54;76.45;100893.91;5056205;28;20063;-78
2021/05/30 01:39:56;;;;;;;5.25;4.15;;;;;;;16.47;76.68;100899.06;5055885;28;20052;-76
2021/05/30 01:43:00;;;;;;;8.18;4.30;;;;;;;16.51;77.14;100896.91;5056198;28;20052;-77
2021/05/30 01:46:05;;;;;;;4.38;3.85;;;;;;;16.52;77.27;100895.91;5056005;28;20056;-77
2021/05/30 01:49:09;;;;;;;5.43;4.22;;;;;;;16.56;77.05;100881.06;5055993;28;20052;-77
2021/05/30 01:52:14;;;;;;;5.25;4.70;;;;;;;16.50;77.37;100882.50;5055904;28;20056;-78
2021/05/30 01:55:26;;;;;;;5.35;4.55;;;;;;;16.52;77.57;100890.50;5055913;28;20052;-77
2021/05/30 01:58:47;;;;;;;8.57;4.88;;;;;;;16.44;78.29;100891.28;5054663;28;20048;-77
2021/05/30 02:02:00;;;;;;;6.93;4.40;;;;;;;16.52;78.27;100904.03;5053704;28;20048;-78
2021/05/30 02:05:06;;;;;;;5.68;4.45;;;;;;;16.54;78.37;100899.34;5033329;28;20064;-77
2021/05/30 02:07:55;;;;;;;6.15;4.57;;;;;;;16.57;78.14;100910.69;5040279;28;20056;-77
2021/05/30 02:10:59;;;;;;;5.60;4.80;;;;;;;16.61;78.19;100913.94;5033616;28;20045;-77
2021/05/30 02:14:04;;;;;;;5.47;4.50;;;;;;;16.62;78.10;100912.91;5033724;28;20048;-77
2021/05/30 02:17:09;;;;;;;5.45;4.80;;;;;;;16.55;78.17;100914.56;5033776;28;20056;-77
2021/05/30 02:20:15;;;;;;;5.13;4.63;;;;;;;16.45;77.88;100900.25;5033659;28;20061;-77
2021/05/30 02:23:19;;;;;;;5.25;4.68;;;;;;;16.38;78.71;100910.88;5033896;28;20059;-77
2021/05/30 02:26:23;;;;;;;6.85;4.43;;;;;;;16.37;79.15;100894.78;5033564;28;20120;-78
2021/05/30 02:29:38;;;;;;;5.45;4.53;;;;;;;16.40;78.75;100908.00;5032435;28;20052;-77
2021/05/30 02:32:42;;;;;;;5.43;4.93;;;;;;;16.35;79.21;100915.75;5022481;28;20064;-77
2021/05/30 02:35:48;;;;;;;6.32;4.60;;;;;;;16.35;78.97;100923.88;5033552;28;20060;-77
2021/05/30 02:38:53;;;;;;;6.07;4.90;;;;;;;16.35;79.65;100916.59;5033544;28;20328;-77
2021/05/30 02:41:58;;;;;;;9.05;4.75;;;;;;;16.45;79.41;100919.22;5043925;28;20052;-78
2021/05/30 02:45:05;;;;;;;6.60;4.63;;;;;;;16.48;79.15;100932.44;5055393;28;20380;-77
2021/05/30 02:48:10;;;;;;;6.65;4.90;;;;;;;16.44;79.62;100925.66;5054977;28;20052;-79
2021/05/30 02:51:14;;;;;;;8.50;4.82;;;;;;;16.39;79.30;100923.44;5053978;28;20045;-77
2021/05/30 02:54:19;;;;;;;5.32;4.45;;;;;;;16.33;79.69;100934.03;5053876;28;20048;-77
2021/05/30 02:57:24;;;;;;;6.25;5.18;;;;;;;16.35;79.66;100932.00;5054866;28;20048;-77
2021/05/30 03:00:28;;;;;;;6.78;5.05;;;;;;;16.20;80.96;100938.00;5054525;28;20048;-78
2021/05/30 03:03:14;;;;;;;7.13;4.90;;;;;;;16.18;80.88;100923.75;5061237;28;20483;-77
2021/05/30 03:05:59;;;;;;;7.05;5.35;;;;;;;16.13;81.14;100933.34;5056867;28;20052;-77
2021/05/30 03:09:04;;;;;;;6.15;4.60;;;;;;;16.14;81.05;100926.94;5053597;28;20127;-77
2021/05/30 03:11:49;;;;;;;5.82;4.63;;;;;;;16.20;81.19;100926.31;5061045;28;20044;-77
2021/05/30 03:14:35;;;;;;;5.85;4.88;;;;;;;16.17;81.09;100926.63;5060993;28;20047;-77
2021/05/30 03:17:20;;;;;;;5.32;4.80;;;;;;;16.03;81.73;100919.03;5059981;28;20056;-77
2021/05/30 03:20:25;;;;;;;5.88;4.40;;;;;;;16.12;81.30;100920.84;5054224;28;20400;-77
2021/05/30 03:23:30;;;;;;;6.03;4.28;;;;;;;16.10;81.38;100915.56;5054433;28;20511;-77
2021/05/30 03:26:34;;;;;;;6.95;5.10;;;;;;;16.11;82.01;100914.56;5054293;28;20055;-77
2021/05/30 03:29:39;;;;;;;4.97;4.47;;;;;;;16.10;81.54;100917.41;5054303;28;20464;-78
2021/05/30 03:32:43;;;;;;;8.50;4.75;;;;;;;16.03;81.85;100917.19;5053709;28;20428;-77
2021/05/30 03:35:48;;;;;;;9.35;4.68;;;;;;;15.94;82.11;100920.00;5053655;28;20063;-78
2021/05/30 03:39:00;;;;;;;9.18;5.47;;;;;;;15.73;83.65;100909.47;5053674;28;20060;-77
2021/05/30 03:42:09;;;;;;;6.77;5.80;;;;;;;15.61;84.16;100910.69;5053263;28;20048;-77
2021/05/30 03:45:15;;;;;;;7.13;5.75;;;;;;;15.53;84.52;100910.59;5053637;28;20056;-78
2021/05/30 03:48:19;;;;;;;6.53;4.95;;;;;;;15.57;84.02;100914.72;5053545;28;20056;-78
2021/05/30 03:51:24;;;;;;;8.77;5.82;;;;;;;15.49;84.82;100923.59;5052248;28;20068;-78
2021/05/30 03:54:28;;;;;;;7.28;5.57;;;;;;;15.48;84.75;100912.94;5053128;28;20040;-77
2021/05/30 03:57:37;;;;;;;6.55;5.82;;;;;;;15.45;84.80;100914.09;5053315;28;20067;-79
2021/05/30 04:00:41;;;;;;;7.90;5.68;;;;;;;15.47;85.61;100919.34;5053358;28;20048;-78
2021/05/30 04:03:46;;;;;;;10.15;5.80;;;;;;;15.49;85.86;100926.31;5053060;28;20044;-77
2021/05/30 04:06:50;;;;;;;6.05;5.45;;;;;;;15.61;85.44;100932.34;5051562;28;20067;-78
2021/05/30 04:09:55;;;;;;;9.93;5.70;;;;;;;15.63;85.54;100926.78;5052260;28;20511;-78
2021/05/30 04:12:59;;;;;;;9.02;6.18;;;;;;;15.67;85.29;100926.31;5052965;28;20048;-79
2021/05/30 04:16:03;;;;;;;9.07;5.93;;;;;;;15.87;85.17;100919.78;5053004;28;20075;-77
2021/05/30 04:19:07;;;;;;;9.23;5.95;;;;;;;16.20;83.64;100929.88;5052907;28;20056;-78
2021/05/30 04:22:12;;;;;;;6.68;5.90;;;;;;;16.49;81.55;100921.44;5053269;28;20052;-77
2021/05/30 04:25:17;;;;;;;8.07;5.65;;;;;;;16.83;80.33;100933.25;5053219;28;20491;-77
2021/05/30 04:28:21;;;;;;;6.07;4.95;;;;;;;17.13;79.08;100931.88;5052929;28;20052;-77
2021/05/30 04:31:26;;;;;;;9.00;5.30;;;;;;;17.38;78.19;100930.09;5052995;28;20056;-78
2021/05/30 04:34:31;;;;;;;7.43;5.00;;;;;;;17.87;76.00;100920.25;5052692;28;20052;-78
2021/05/30 04:37:36;;;;;;;7.78;4.95;;;;;;;18.56;73.40;100912.47;5052615;28;20052;-78
2021/05/30 04:40:40;;;;;;;7.70;4.63;;;;;;;18.83;71.35;100928.38;5052471;28;20459;-79
2021/05/30 04:43:45;;;;;;;8.38;4.47;;;;;;;19.05;70.77;100936.81;5052144;28;20495;-79
2021/05/30 04:46:49;;;;;;;7.75;4.22;;;;;;;19.52;69.86;100925.91;5052636;28;20080;-79
2021/05/30 04:49:54;;;;;;;7.45;4.35;;;;;;;19.58;68.13;100934.22;5052610;28;20052;-78
2021/05/30 04:52:58;;;;;;;8.85;5.13;;;;;;;19.69;68.13;100930.25;5055232;28;20415;-78
2021/05/30 04:56:04;;;;;;;7.38;4.40;;;;;;;20.17;66.52;100942.69;5056414;28;20056;-78
2021/05/30 04:59:08;;;;;;;6.97;3.45;;;;;;;20.56;65.28;100936.09;5055467;28;20056;-79
2021/05/30 05:02:12;;;;;;;7.88;3.50;;;;;;;21.27;63.32;100943.69;5055143;28;20052;-78
2021/05/30 05:05:17;;;;;;;9.63;3.97;;;;;;;21.66;60.76;100950.69;5055264;28;20052;-78
2021/05/30 05:08:21;;;;;;;9.57;3.70;;;;;;;22.03;59.90;100954.09;5056421;28;20071;-78
2021/05/30 05:11:26;;;;;;;7.97;3.67;;;;;;;22.05;59.11;100953.91;5055334;28;20048;-79
2021/05/30 05:14:30;;;;;;;6.57;3.45;;;;;;;22.53;57.75;100947.66;5056222;28;20060;-78
2021/05/30 05:17:35;;;;;;;7.05;3.20;;;;;;;23.39;54.95;100943.63;5056136;28;20380;-78
2021/05/30 05:20:40;;;;;;;9.30;3.70;;;;;;;23.42;54.04;100945.97;5055968;28;20052;-79
2021/05/30 05:23:44;;;;;;;6.93;4.18;;;;;;;24.07;51.96;100953.63;5056126;28;20056;-79
2021/05/30 05:26:49;;;;;;;6.65;3.33;;;;;;;24.42;51.01;100949.66;5055901;28;20051;-79
2021/05/30 05:29:53;;;;;;;10.20;4.32;;;;;;;25.27;49.47;100951.50;5055965;28;20056;-79
2021/05/30 05:32:59;;;;;;;10.02;3.30;;;;;;;26.30;47.49;100948.50;5055861;28;20048;-79
2021/05/30 05:36:03;;;;;;;5.50;2.97;;;;;;;26.90;44.83;100948.88;5054951;28;20048;-80
2021/05/30 05:39:09;;;;;;;5.38;2.83;;;;;;;28.58;41.64;100946.09;5055806;28;20484;-80
2021/05/30 05:42:13;;;;;;;11.77;3.30;;;;;;;29.78;38.97;100941.72;5054920;28;20060;-79
2021/05/30 05:45:18;;;;;;;5.53;2.33;;;;;;;30.12;37.01;100945.44;5055818;28;20056;-80
2021/05/30 05:48:22;;;;;;;5.40;2.17;;;;;;;29.74;38.08;100936.91;5055609;28;20052;-80
2021/05/30 05:51:27;;;;;;;5.57;2.20;;;;;;;29.77;37.42;100942.81;5055378;28;20072;-79
2021/05/30 05:54:31;;;;;;;5.57;2.63;;;;;;;30.83;36.18;100939.22;5054581;28;20040;-80
2021/05/30 05:57:40;;;;;;;6.55;2.38;;;;;;;28.91;38.41;100932.56;5054146;28;20495;-79
2021/05/30 06:00:46;;;;;;;5.70;2.10;;;;;;;29.08;38.86;100940.13;5055251;28;20052;-79
2021/05/30 06:03:50;;;;;;;5.72;2.25;;;;;;;29.72;38.47;100930.78;5054825;28;20056;-79
2021/05/30 06:06:54;;;;;;;5.45;2.42;;;;;;;30.73;36.26;100936.28;5054426;28;20064;-80
2021/05/30 06:09:58;;;;;;;5.35;2.40;;;;;;;32.74;32.87;100926.84;5055016;28;20052;-80
2021/05/30 06:13:11;;;;;;;5.95;2.00;;;;;;;33.23;31.82;100928.31;5055354;28;20483;-80
2021/05/30 06:16:15;;;;;;;3.75;1.92;;;;;;;33.49;31.39;100934.03;5055245;28;20048;-80
2021/05/30 06:19:20;;;;;;;4.28;2.10;;;;;;;34.00;31.27;100939.53;5055340;28;20048;-79
2021/05/30 06:22:25;;;;;;;7.00;2.58;;;;;;;33.04;32.06;100935.47;5077309;28;20055;-79
2021/05/30 06:25:30;;;;;;;3.45;1.67;;;;;;;34.49;30.36;100933.53;5054791;28;20052;-80
2021/05/30 06:28:34;;;;;;;5.95;2.45;;;;;;;33.49;30.90;100929.31;5053881;28;20498;-79
2021/05/30 06:31:38;;;;;;;6.55;2.42;;;;;;;33.69;31.07;100940.56;5054636;28;20056;-78
2021/05/30 06:34:43;;;;;;;7.35;2.10;;;;;;;36.59;28.03;100937.84;5053859;28;20386;-78
2021/05/30 06:37:47;;;;;;;6.35;2.10;;;;;;;37.52;26.14;100941.13;5054826;28;20388;-78
2021/05/30 06:40:52;;;;;;;4.95;1.90;;;;;;;38.26;26.16;100938.44;5053669;28;20060;-78
2021/05/30 06:43:56;;;;;;;5.00;1.90;;;;;;;37.27;25.53;100950.63;5054872;28;20052;-78
2021/05/30 06:47:00;;;;;;;5.65;1.95;;;;;;;35.21;28.45;100942.41;5054492;28;20048;-78
2021/05/30 06:50:05;;;;;;;3.95;1.67;;;;;;;36.21;27.76;100945.94;5054334;28;20056;-78
2021/05/30 06:53:10;;;;;;;10.02;2.67;;;;;;;35.23;28.64;100942.97;5054336;28;20052;-78
2021/05/30 06:56:15;;;;;;;39.05;35.47;;;;;;;36.68;26.22;100947.28;5053298;28;20380;-78
2021/05/30 06:59:19;;;;;;;6.60;3.30;;;;;;;36.97;26.29;100928.56;5054047;28;20041;-78
2021/05/30 07:02:25;;;;;;;6.43;2.05;;;;;;;39.08;24.23;100940.75;5054262;28;20124;-78
2021/05/30 07:05:29;;;;;;;7.45;1.92;;;;;;;37.61;25.40;100942.97;5052809;28;20048;-79
2021/05/30 07:08:33;;;;;;;7.85;2.05;;;;;;;38.41;24.24;100940.19;5053941;28;20064;-79
2021/05/30 07:11:38;;;;;;;6.78;2.13;;;;;;;39.62;23.88;100938.84;5053078;28;20484;-79
2021/05/30 07:14:42;;;;;;;5.80;1.80;;;;;;;38.63;24.30;100939.56;5053347;28;20040;-79
2021/05/30 07:17:47;;;;;;;8.70;2.30;;;;;;;37.84;25.05;100943.25;5053756;28;20075;-79
2021/05/30 07:20:53;;;;;;;7.47;1.77;;;;;;;37.70;25.23;100938.34;5053651;28;20048;-79
2021/05/30 07:23:57;;;;;;;3.75;1.67;;;;;;;39.53;23.54;100937.06;5053949;28;20044;-79
2021/05/30 07:27:02;;;;;;;6.38;1.80;;;;;;;40.28;22.40;100932.56;5053539;28;20055;-78
2021/05/30 07:30:07;;;;;;;6.22;1.58;;;;;;;39.25;23.30;100939.03;5041071;28;20052;-78
2021/05/30 07:33:12;;;;;;;5.18;1.35;;;;;;;40.23;22.21;100931.84;5053623;28;20048;-79
2021/05/30 07:36:16;;;;;;;3.65;1.63;;;;;;;40.17;22.26;100936.78;5040648;28;20050;-79
2021/05/30 07:39:21;;;;;;;5.30;1.90;;;;;;;39.60;23.17;100920.63;5053391;28;20507;-79
2021/05/30 07:42:25;;;;;;;4.15;1.88;;;;;;;38.05;24.25;100925.84;5053201;28;20051;-79
2021/05/30 07:45:30;;;;;;;5.70;2.10;;;;;;;38.21;24.50;100930.09;5053245;28;20052;-78
2021/05/30 07:48:34;;;;;;;4.22;1.60;;;;;;;39.37;22.91;100918.84;5053257;28;20059;-79
2021/05/30 07:51:38;;;;;;;3.70;1.40;;;;;;;40.89;21.43;100915.00;5053552;28;20056;-79
2021/05/30 07:54:42;;;;;;;4.82;1.50;;;;;;;42.02;20.48;100917.09;5053321;28;20476;-79
2021/05/30 07:57:47;;;;;;;4.20;1.58;;;;;;;41.94;20.43;100921.56;5053139;28;20052;-79
2021/05/30 08:00:52;;;;;;;4.32;1.40;;;;;;;38.37;23.00;100913.88;5052199;28;20056;-79
2021/05/30 08:03:57;;;;;;;6.22;1.70;;;;;;;37.70;24.29;100918.75;5052500;28;20056;-78
2021/05/30 08:07:01;;;;;;;5.25;1.83;;;;;;;38.38;23.51;100923.97;5051729;28;20056;-78
2021/05/30 08:10:06;;;;;;;4.00;1.42;;;;;;;39.34;21.13;100914.66;5053174;28;20052;-78
2021/05/30 08:13:10;;;;;;;6.20;1.60;;;;;;;37.27;24.00;100917.03;5052726;28;20060;-79
2021/05/30 08:16:15;;;;;;;3.97;1.50;;;;;;;36.39;23.60;100914.47;5052075;28;20060;-79
2021/05/30 08:19:20;;;;;;;7.88;1.67;;;;;;;32.83;27.47;100927.22;5053013;28;20052;-79
2021/05/30 08:22:24;;;;;;;5.47;1.73;;;;;;;30.29;30.98;100930.50;5052152;28;20067;-79
2021/05/30 08:25:28;;;;;;;4.93;1.50;;;;;;;28.21;33.45;100928.84;5052117;28;20048;-78
2021/05/30 08:28:33;;;;;;;7.85;2.08;;;;;;;26.69;35.88;100927.25;5056258;28;20391;-78
2021/05/30 08:31:37;;;;;;;2.50;1.17;;;;;;;25.68;37.71;100934.66;5055975;28;20048;-78
2021/05/30 08:34:44;;;;;;;5.55;1.35;;;;;;;24.87;38.72;100936.16;5057195;28;20063;-78
2021/05/30 08:37:49;;;;;;;6.63;1.30;;;;;;;24.97;39.23;100931.06;5056571;28;20060;-78
2021/05/30 08:40:53;;;;;;;5.18;1.40;;;;;;;24.54;39.97;100936.97;5056533;28;20060;-78
2021/05/30 08:43:57;;;;;;;4.43;1.50;;;;;;;24.54;40.22;100931.50;5056621;28;20059;-77
2021/05/30 08:47:01;;;;;;;12.65;1.88;;;;;;;24.11;40.34;100924.72;5056629;28;20052;-79
2021/05/30 08:50:06;;;;;;;2.97;1.38;;;;;;;23.73;41.39;100924.38;5056615;28;20056;-80
2021/05/30 08:53:11;;;;;;;7.60;1.60;;;;;;;23.35;41.12;100922.31;5055545;28;20079;-78
2021/05/30 08:56:17;;;;;;;3.95;1.55;;;;;;;23.71;41.57;100912.78;5056702;28;20452;-78
2021/05/30 08:59:31;;;;;;;3.00;1.20;;;;;;;23.90;41.36;100914.72;5055516;28;20052;-78
2021/05/30 09:02:35;;;;;;;3.25;1.27;;;;;;;23.74;40.01;100908.78;5055185;28;20052;-80
2021/05/30 09:05:41;;;;;;;5.68;1.40;;;;;;;23.66;40.00;100915.28;5055832;28;20052;-78
2021/05/30 09:08:50;;;;;;;5.63;1.70;;;;;;;23.60;40.66;100910.63;5056184;28;20056;-78
2021/05/30 09:11:55;;;;;;;4.60;1.55;;;;;;;23.40;42.14;100909.72;5055406;28;20064;-78
2021/05/30 09:15:02;;;;;;;7.68;1.63;;;;;;;23.51;42.46;100911.00;5056134;28;20052;-78
2021/05/30 09:18:14;;;;;;;5.55;1.80;;;;;;;23.29;42.23;100913.00;5055946;28;20099;-78
2021/05/30 09:21:20;;;;;;;5.60;1.60;;;;;;;23.55;42.15;100915.06;5056029;28;20059;-78
2021/05/30 09:24:24;;;;;;;8.27;1.80;;;;;;;23.60;41.38;100909.81;5056015;28;20067;-79
2021/05/30 09:27:28;;;;;;;3.92;1.33;;;;;;;23.36;41.32;100902.09;5055895;28;20064;-78
2021/05/30 09:30:39;;;;;;;6.00;1.60;;;;;;;23.63;40.47;100902.00;5055902;28;20055;-78
2021/05/30 09:33:44;;;;;;;5.13;1.40;;;;;;;23.39;39.27;100905.28;5055531;28;20052;-78
2021/05/30 09:36:51;;;;;;;5.10;1.30;;;;;;;23.50;38.87;100899.22;5055785;28;20056;-79
2021/05/30 09:39:55;;;;;;;3.97;1.08;;;;;;;23.67;37.87;100899.69;5055683;28;20052;-77
2021/05/30 09:43:14;;;;;;;8.90;1.42;;;;;;;23.57;39.93;100905.56;5054804;28;20048;-79
2021/05/30 09:46:20;;;;;;;5.43;1.48;;;;;;;23.22;38.43;100892.94;5055461;28;20396;-79
2021/05/30 09:49:24;;;;;;;3.17;1.52;;;;;;;23.44;37.93;100908.25;5054283;28;20064;-80
2021/05/30 09:52:42;;;;;;;15.95;13.52;;;;;;;23.38;38.05;100911.78;5055531;28;20052;-80
2021/05/30 09:55:47;;;;;;;6.43;1.73;;;;;;;23.33;38.90;100898.69;5055519;28;20379;-80
2021/05/30 09:59:09;;;;;;;4.90;1.30;;;;;;;23.26;39.00;100886.00;5054624;28;20063;-80
2021/05/30 10:02:13;;;;;;;3.28;1.20;;;;;;;23.29;37.15;100893.81;5055546;28;20048;-80
2021/05/30 10:05:19;;;;;;;5.85;1.13;;;;;;;23.46;36.41;100886.13;5053924;28;20056;-79
2021/05/30 10:08:23;;;;;;;5.38;1.13;;;;;;;23.35;37.02;100872.97;5054316;28;20487;-79
2021/05/30 10:11:28;;;;;;;7.20;1.10;;;;;;;23.16;38.40;100880.91;5055488;28;20056;-79
2021/05/30 10:14:33;;;;;;;6.53;1.50;;;;;;;23.02;38.33;100873.69;5054343;28;20048;-79
2021/05/30 10:17:40;;;;;;;5.45;1.48;;;;;;;22.83;36.32;100874.41;5054908;28;20056;-79
2021/05/30 10:20:46;;;;;;;3.63;1.35;;;;;;;22.80;37.61;100891.25;5053877;28;20052;-79
2021/05/30 10:23:52;;;;;;;3.70;1.40;;;;;;;22.73;37.48;100882.16;5054954;28;20052;-79
2021/05/30 10:27:26;;;;;;;4.20;1.40;;;;;;;22.78;37.34;100897.97;5054861;28;20051;-79
2021/05/30 10:30:31;;;;;;;4.07;1.27;;;;;;;22.84;36.59;100883.47;5055041;28;20056;-79
2021/05/30 10:33:35;;;;;;;3.80;1.20;;;;;;;22.83;36.68;100877.16;5055016;28;20052;-79
2021/05/30 10:36:54;;;;;;;4.28;2.78;;;;;;;23.07;38.68;100889.50;5054747;28;20043;-79
2021/05/30 10:40:25;;;;;;;2.83;1.38;;;;;;;23.20;39.08;100875.88;5054636;28;20404;-79
2021/05/30 10:43:30;;;;;;;7.07;1.67;;;;;;;23.22;37.12;100874.63;5054564;28;20055;-79
2021/05/30 10:46:50;;;;;;;2.88;1.60;;;;;;;23.23;38.66;100867.25;5054585;28;20056;-79
2021/05/30 10:50:09;;;;;;;4.70;1.40;;;;;;;23.10;38.16;100864.44;5053339;28;20498;-79
2021/05/30 10:53:32;;;;;;;10.63;4.18;;;;;;;22.80;36.78;100865.75;5054263;28;20048;-78
2021/05/30 10:56:39;;;;;;;2.88;1.20;;;;;;;22.60;38.45;100840.97;5054117;28;20499;-79
2021/05/30 10:59:43;;;;;;;6.82;1.50;;;;;;;22.63;39.74;100852.41;5054280;28;20056;-79
2021/05/30 11:03:03;;;;;;;3.08;1.40;;;;;;;22.70;40.64;100857.91;5054026;28;20048;-79
2021/05/30 11:06:09;;;;;;;4.47;1.33;;;;;;;22.74;39.28;100852.88;5053715;28;20071;-79
2021/05/30 11:09:13;;;;;;;3.22;1.27;;;;;;;22.70;38.60;100846.94;5054081;28;20499;-79
2021/05/30 11:12:22;;;;;;;2.92;1.30;;;;;;;22.61;39.51;100848.13;5054021;28;20052;-79
2021/05/30 11:15:28;;;;;;;4.05;1.50;;;;;;;22.77;40.17;100836.03;5053925;28;20048;-80
2021/05/30 11:18:32;;;;;;;3.92;1.52;;;;;;;22.91;39.62;100833.16;5053873;28;20400;-79
2021/05/30 11:21:45;;;;;;;3.25;1.05;;;;;;;22.87;38.64;100837.38;5053956;28;20068;-79
2021/05/30 11:24:57;;;;;;;6.75;1.40;;;;;;;22.96;38.64;100833.41;5053790;28;20428;-79
2021/05/30 11:28:13;;;;;;;3.35;1.05;;;;;;;22.92;39.84;100831.28;5053671;28;20052;-79
2021/05/30 11:31:19;;;;;;;2.75;1.00;;;;;;;23.00;38.27;100831.13;5052733;28;20384;-79
2021/05/30 11:34:32;;;;;;;3.45;1.20;;;;;;;22.62;37.18;100817.00;5053664;28;20479;-80
2021/05/30 11:37:36;;;;;;;2.97;1.02;;;;;;;22.83;37.45;100824.28;5053512;28;20060;-79
2021/05/30 11:40:40;;;;;;;3.60;1.20;;;;;;;22.81;37.92;100832.72;5053481;28;20052;-79
2021/05/30 11:44:04;;;;;;;2.13;1.00;;;;;;;22.81;37.07;100816.28;5053591;28;20388;-80
2021/05/30 11:47:09;;;;;;;3.10;1.20;;;;;;;22.94;38.32;100804.53;5053447;28;20067;-79
2021/05/30 11:50:30;;;;;;;3.22;1.02;;;;;;;23.06;37.04;100809.22;5052428;28;20044;-80
2021/05/30 11:53:35;;;;;;;2.35;1.23;;;;;;;23.08;37.66;100800.81;5041063;28;20051;-79
2021/05/30 11:56:44;;;;;;;5.00;1.20;;;;;;;23.08;38.39;100793.47;5053240;28;20139;-78
2021/05/30 11:59:57;;;;;;;3.42;1.58;;;;;;;22.74;37.83;100803.63;5053366;28;20056;-79
2021/05/30 12:03:10;;;;;;;3.85;1.30;;;;;;;22.63;37.98;100792.19;5053222;28;20044;-79
2021/05/30 12:06:15;;;;;;;2.90;1.35;;;;;;;22.78;37.22;100781.09;5052759;28;20060;-79
2021/05/30 12:09:20;;;;;;;3.67;1.30;;;;;;;22.65;36.44;100779.16;5052356;28;20068;-80
2021/05/30 12:12:28;;;;;;;2.92;1.23;;;;;;;22.73;39.29;100785.50;5053305;28;20079;-79
2021/05/30 12:15:33;;;;;;;3.40;1.27;;;;;;;22.89;39.41;100775.03;5053195;28;20052;-79
2021/05/30 12:18:55;;;;;;;4.82;1.33;;;;;;;23.12;39.12;100774.69;5052969;28;20044;-79
2021/05/30 12:22:00;;;;;;;2.90;1.20;;;;;;;23.16;38.64;100775.97;5053149;28;20052;-79
2021/05/30 12:25:08;;;;;;;3.78;1.33;;;;;;;23.22;37.65;100772.41;5053042;28;20044;-79
2021/05/30 12:28:12;;;;;;;4.82;1.35;;;;;;;23.24;39.04;100764.84;5052891;28;20099;-80
2021/05/30 12:31:20;;;;;;;2.03;1.02;;;;;;;23.13;38.29;100766.25;5053000;28;20048;-79
2021/05/30 12:34:35;;;;;;;3.63;1.15;;;;;;;22.89;38.85;100757.75;5052903;28;20048;-79
2021/05/30 12:37:44;;;;;;;3.53;1.20;;;;;;;23.13;39.17;100757.22;5052750;28;20395;-79
2021/05/30 12:40:49;;;;;;;3.42;1.10;;;;;;;23.46;39.25;100755.44;5052995;28;20052;-79
2021/05/30 12:44:23;;;;;;;2.28;1.23;;;;;;;23.40;39.49;100761.75;5053201;28;20044;-79
2021/05/30 12:47:39;;;;;;;2.92;1.40;;;;;;;23.18;39.30;100757.47;5052897;28;20064;-79
2021/05/30 12:50:44;;;;;;;2.55;1.20;;;;;;;23.18;39.32;100749.25;5052860;28;20048;-79
2021/05/30 12:53:48;;;;;;;5.47;1.48;;;;;;;23.29;38.63;100744.00;5052322;28;20048;-79
2021/05/30 12:56:54;;;;;;;3.60;1.20;;;;;;;23.22;38.51;100740.41;5052671;28;20060;-79
2021/05/30 12:59:59;;;;;;;3.25;1.20;;;;;;;23.44;38.01;100729.28;5052834;28;20116;-80
2021/05/30 13:03:06;;;;;;;4.55;1.30;;;;;;;23.39;38.56;100740.88;5052537;28;20048;-79
2021/05/30 13:06:11;;;;;;;4.20;1.10;;;;;;;23.36;38.52;100738.53;5052223;28;20056;-80
2021/05/30 13:09:15;;;;;;;7.85;1.40;;;;;;;23.41;38.35;100727.81;5052723;28;20052;-80
2021/05/30 13:12:25;;;;;;;3.13;1.00;;;;;;;23.52;38.65;100724.47;5052436;28;20052;-79
2021/05/30 13:15:31;;;;;;;2.13;1.00;;;;;;;23.39;35.52;100727.19;5056213;28;20056;-79
2021/05/30 13:18:51;;;;;;;2.53;1.05;;;;;;;23.50;37.62;100712.88;5056135;28;20170;-80
2021/05/30 13:22:04;;;;;;;2.47;1.20;;;;;;;23.57;37.38;100719.19;5056158;28;20064;-81
2021/05/30 13:25:23;;;;;;;5.78;0.90;;;;;;;23.65;36.53;100723.63;5056001;28;20052;-79
2021/05/30 13:28:37;;;;;;;2.55;0.98;;;;;;;23.62;37.19;100729.53;5055785;28;20495;-80
2021/05/30 13:31:41;;;;;;;;;;;;;;;23.52;37.02;100729.94;5056329;28;20381;-80
2021/05/30 13:34:45;;;;;;;;;;;;;;;23.47;38.04;100729.72;5056370;28;19912;-79
2021/05/30 13:37:50;;;;;;;2.45;0.98;;;;;;;23.61;39.04;100720.44;5055955;28;20269;-79
2021/05/30 13:40:55;;;;;;;11.32;4.30;;;;;;;23.75;38.97;100726.78;5055632;28;20068;-80
2021/05/30 13:44:00;;;;;;;6.13;3.60;;;;;;;23.81;39.03;100710.34;5055569;28;20071;-79
2021/05/30 13:47:04;;;;;;;4.35;1.60;;;;;;;23.95;37.70;100702.91;5056302;28;20491;-79
2021/05/30 13:50:09;;;;;;;3.05;0.90;;;;;;;23.88;36.67;100700.19;5055404;28;20052;-79
2021/05/30 13:53:13;;;;;;;2.67;1.08;;;;;;;23.92;35.90;100706.94;5056406;28;20056;-78
2021/05/30 13:56:19;;;;;;;5.03;1.23;;;;;;;24.07;37.44;100701.28;5056094;28;20044;-80
2021/05/30 13:59:31;;;;;;;3.20;0.90;;;;;;;24.26;36.81;100699.53;5055943;28;20044;-79
2021/05/30 14:02:36;;;;;;;3.45;1.00;;;;;;;24.20;36.90;100697.63;5055224;28;20060;-79
2021/05/30 14:05:41;;;;;;;2.05;0.80;;;;;;;24.16;35.76;100696.38;5055287;28;20060;-80
2021/05/30 14:08:45;;;;;;;3.15;1.05;;;;;;;23.79;36.35;100684.19;5055650;28;20385;-79
2021/05/30 14:11:50;;;;;;;2.08;1.17;;;;;;;24.02;36.56;100689.22;5055815;28;20052;-79
2021/05/30 14:14:55;;;;;;;5.30;1.02;;;;;;;23.82;35.56;100689.25;5055693;28;20056;-79
2021/05/30 14:17:59;;;;;;;2.47;1.00;;;;;;;23.93;36.49;100678.47;5055591;28;20051;-78
2021/05/30 14:21:05;;;;;;;2.40;1.15;;;;;;;24.15;35.83;100689.19;5055711;28;20048;-79
2021/05/30 14:24:12;;;;;;;5.35;1.15;;;;;;;24.20;35.29;100692.16;5055604;28;20052;-79